sensor_id;sensor_type;location;lat;lon;timestamp;P1;durP1;ratioP1;P2;durP2;ratioP2
34405;SDS011;20658;45.630;8.886;2023-01-23T00:00:38;36.47;;;22.58;;
34405;SDS011;20658;45.630;8.886;2023-01-23T00:03:17;41.88;;;24.15;;
34405;SDS011;20658;45.630;8.886;2023-01-23T00:05:57;41.10;;;23.05;;
34405;SDS011;20658;45.630;8.886;2023-01-23T00:08:32;40.90;;;23.35;;
34405;SDS011;20658;45.630;8.886;2023-01-23T00:11:07;37.75;;;21.85;;
34405;SDS011;20658;45.630;8.886;2023-01-23T00:13:39;37.78;;;21.80;;
34405;SDS011;20658;45.630;8.886;2023-01-23T00:16:14;38.97;;;23.45;;
34405;SDS011;20658;45.630;8.886;2023-01-23T00:18:51;46.83;;;27.25;;
34405;SDS011;20658;45.630;8.886;2023-01-23T00:21:25;45.67;;;25.40;;
34405;SDS011;20658;45.630;8.886;2023-01-23T00:24:00;44.10;;;25.63;;
34405;SDS011;20658;45.630;8.886;2023-01-23T00:26:29;49.92;;;30.05;;
34405;SDS011;20658;45.630;8.886;2023-01-23T00:29:05;39.97;;;23.58;;
34405;SDS011;20658;45.630;8.886;2023-01-23T00:31:39;35.50;;;21.17;;
34405;SDS011;20658;45.630;8.886;2023-01-23T00:34:14;37.50;;;21.92;;
34405;SDS011;20658;45.630;8.886;2023-01-23T00:36:47;35.50;;;20.83;;
34405;SDS011;20658;45.630;8.886;2023-01-23T00:39:22;35.63;;;20.98;;
34405;SDS011;20658;45.630;8.886;2023-01-23T00:41:55;34.65;;;21.20;;
34405;SDS011;20658;45.630;8.886;2023-01-23T00:44:31;34.97;;;19.95;;
34405;SDS011;20658;45.630;8.886;2023-01-23T00:47:04;37.40;;;22.65;;
34405;SDS011;20658;45.630;8.886;2023-01-23T00:49:38;36.33;;;21.83;;
34405;SDS011;20658;45.630;8.886;2023-01-23T00:52:11;38.30;;;23.42;;
34405;SDS011;20658;45.630;8.886;2023-01-23T00:54:46;38.60;;;23.55;;
34405;SDS011;20658;45.630;8.886;2023-01-23T00:57:19;37.90;;;23.65;;
34405;SDS011;20658;45.630;8.886;2023-01-23T00:59:54;37.15;;;21.88;;
34405;SDS011;20658;45.630;8.886;2023-01-23T01:02:27;40.38;;;22.35;;
34405;SDS011;20658;45.630;8.886;2023-01-23T01:05:01;37.17;;;23.25;;
34405;SDS011;20658;45.630;8.886;2023-01-23T01:07:34;44.92;;;21.45;;
34405;SDS011;20658;45.630;8.886;2023-01-23T01:10:08;37.53;;;21.77;;
34405;SDS011;20658;45.630;8.886;2023-01-23T01:12:42;35.05;;;20.38;;
34405;SDS011;20658;45.630;8.886;2023-01-23T01:15:18;37.05;;;21.45;;
34405;SDS011;20658;45.630;8.886;2023-01-23T01:17:52;37.90;;;20.90;;
34405;SDS011;20658;45.630;8.886;2023-01-23T01:20:26;36.42;;;19.85;;
34405;SDS011;20658;45.630;8.886;2023-01-23T01:22:56;32.95;;;18.80;;
34405;SDS011;20658;45.630;8.886;2023-01-23T01:25:30;31.85;;;19.25;;
34405;SDS011;20658;45.630;8.886;2023-01-23T01:27:59;33.78;;;19.85;;
34405;SDS011;20658;45.630;8.886;2023-01-23T01:30:33;33.53;;;19.75;;
34405;SDS011;20658;45.630;8.886;2023-01-23T01:33:07;33.53;;;18.23;;
34405;SDS011;20658;45.630;8.886;2023-01-23T01:35:41;30.90;;;17.88;;
34405;SDS011;20658;45.630;8.886;2023-01-23T01:38:15;32.78;;;18.63;;
34405;SDS011;20658;45.630;8.886;2023-01-23T01:40:48;34.50;;;19.95;;
34405;SDS011;20658;45.630;8.886;2023-01-23T01:43:23;34.60;;;18.83;;
34405;SDS011;20658;45.630;8.886;2023-01-23T01:46:14;34.42;;;18.85;;
34405;SDS011;20658;45.630;8.886;2023-01-23T01:51:33;31.23;;;16.80;;
34405;SDS011;20658;45.630;8.886;2023-01-23T01:54:13;28.40;;;14.52;;
34405;SDS011;20658;45.630;8.886;2023-01-23T01:56:54;35.38;;;16.70;;
34405;SDS011;20658;45.630;8.886;2023-01-23T01:59:33;30.42;;;17.20;;
34405;SDS011;20658;45.630;8.886;2023-01-23T02:02:15;25.08;;;14.52;;
34405;SDS011;20658;45.630;8.886;2023-01-23T02:04:56;22.60;;;12.45;;
34405;SDS011;20658;45.630;8.886;2023-01-23T02:07:32;25.75;;;13.45;;
34405;SDS011;20658;45.630;8.886;2023-01-23T02:10:09;28.92;;;14.98;;
34405;SDS011;20658;45.630;8.886;2023-01-23T02:12:44;27.98;;;15.00;;
34405;SDS011;20658;45.630;8.886;2023-01-23T02:15:19;29.85;;;14.10;;
34405;SDS011;20658;45.630;8.886;2023-01-23T02:17:55;22.60;;;13.55;;
34405;SDS011;20658;45.630;8.886;2023-01-23T02:20:25;24.10;;;12.45;;
34405;SDS011;20658;45.630;8.886;2023-01-23T02:23:00;24.15;;;13.77;;
34405;SDS011;20658;45.630;8.886;2023-01-23T02:25:48;23.58;;;13.07;;
34405;SDS011;20658;45.630;8.886;2023-01-23T02:28:37;25.52;;;12.43;;
34405;SDS011;20658;45.630;8.886;2023-01-23T02:31:17;25.52;;;13.65;;
34405;SDS011;20658;45.630;8.886;2023-01-23T02:33:52;22.27;;;12.25;;
34405;SDS011;20658;45.630;8.886;2023-01-23T02:36:28;25.17;;;11.63;;
34405;SDS011;20658;45.630;8.886;2023-01-23T02:39:05;23.60;;;12.98;;
34405;SDS011;20658;45.630;8.886;2023-01-23T02:41:42;24.02;;;13.70;;
34405;SDS011;20658;45.630;8.886;2023-01-23T02:44:20;23.50;;;13.18;;
34405;SDS011;20658;45.630;8.886;2023-01-23T02:47:01;21.55;;;10.95;;
34405;SDS011;20658;45.630;8.886;2023-01-23T02:49:39;21.85;;;12.55;;
34405;SDS011;20658;45.630;8.886;2023-01-23T02:52:13;21.30;;;11.50;;
34405;SDS011;20658;45.630;8.886;2023-01-23T02:54:48;19.63;;;10.98;;
34405;SDS011;20658;45.630;8.886;2023-01-23T02:57:23;21.98;;;11.38;;
34405;SDS011;20658;45.630;8.886;2023-01-23T02:59:56;22.70;;;11.50;;
34405;SDS011;20658;45.630;8.886;2023-01-23T03:02:47;21.95;;;11.30;;
34405;SDS011;20658;45.630;8.886;2023-01-23T03:05:23;25.00;;;13.00;;
34405;SDS011;20658;45.630;8.886;2023-01-23T03:07:57;27.05;;;14.63;;
34405;SDS011;20658;45.630;8.886;2023-01-23T03:10:30;29.20;;;16.95;;
34405;SDS011;20658;45.630;8.886;2023-01-23T03:13:05;32.35;;;19.75;;
34405;SDS011;20658;45.630;8.886;2023-01-23T03:15:41;32.20;;;17.80;;
34405;SDS011;20658;45.630;8.886;2023-01-23T03:18:10;27.73;;;17.25;;
34405;SDS011;20658;45.630;8.886;2023-01-23T03:20:43;30.67;;;18.63;;
34405;SDS011;20658;45.630;8.886;2023-01-23T03:23:17;29.35;;;18.10;;
34405;SDS011;20658;45.630;8.886;2023-01-23T03:25:50;28.50;;;16.95;;
34405;SDS011;20658;45.630;8.886;2023-01-23T03:28:31;30.95;;;18.92;;
34405;SDS011;20658;45.630;8.886;2023-01-23T03:31:21;29.50;;;16.65;;
34405;SDS011;20658;45.630;8.886;2023-01-23T03:33:55;26.83;;;15.48;;
34405;SDS011;20658;45.630;8.886;2023-01-23T03:36:31;27.13;;;14.85;;
34405;SDS011;20658;45.630;8.886;2023-01-23T03:39:08;23.95;;;13.35;;
34405;SDS011;20658;45.630;8.886;2023-01-23T03:41:59;23.05;;;13.63;;
34405;SDS011;20658;45.630;8.886;2023-01-23T03:44:30;38.30;;;20.08;;
34405;SDS011;20658;45.630;8.886;2023-01-23T03:47:03;28.40;;;15.18;;
34405;SDS011;20658;45.630;8.886;2023-01-23T03:49:40;28.63;;;14.07;;
34405;SDS011;20658;45.630;8.886;2023-01-23T03:52:13;31.05;;;13.98;;
34405;SDS011;20658;45.630;8.886;2023-01-23T03:54:46;23.45;;;12.27;;
34405;SDS011;20658;45.630;8.886;2023-01-23T03:57:19;22.88;;;11.55;;
34405;SDS011;20658;45.630;8.886;2023-01-23T04:00:12;24.15;;;10.75;;
34405;SDS011;20658;45.630;8.886;2023-01-23T04:02:55;46.97;;;13.55;;
34405;SDS011;20658;45.630;8.886;2023-01-23T04:05:28;21.23;;;11.73;;
34405;SDS011;20658;45.630;8.886;2023-01-23T04:08:02;21.27;;;10.70;;
34405;SDS011;20658;45.630;8.886;2023-01-23T04:10:35;22.10;;;10.23;;
34405;SDS011;20658;45.630;8.886;2023-01-23T04:13:14;21.10;;;10.07;;
34405;SDS011;20658;45.630;8.886;2023-01-23T04:15:44;20.42;;;9.93;;
34405;SDS011;20658;45.630;8.886;2023-01-23T04:18:17;21.85;;;11.15;;
34405;SDS011;20658;45.630;8.886;2023-01-23T04:20:46;22.15;;;9.93;;
34405;SDS011;20658;45.630;8.886;2023-01-23T04:23:20;22.27;;;10.48;;
34405;SDS011;20658;45.630;8.886;2023-01-23T04:25:55;23.05;;;10.10;;
34405;SDS011;20658;45.630;8.886;2023-01-23T04:28:29;24.88;;;11.45;;
34405;SDS011;20658;45.630;8.886;2023-01-23T04:31:04;21.02;;;10.25;;
34405;SDS011;20658;45.630;8.886;2023-01-23T04:33:39;20.90;;;9.55;;
34405;SDS011;20658;45.630;8.886;2023-01-23T04:36:13;22.08;;;9.52;;
34405;SDS011;20658;45.630;8.886;2023-01-23T04:38:46;17.02;;;8.30;;
34405;SDS011;20658;45.630;8.886;2023-01-23T04:41:25;20.38;;;9.13;;
34405;SDS011;20658;45.630;8.886;2023-01-23T04:44:03;20.58;;;9.10;;
34405;SDS011;20658;45.630;8.886;2023-01-23T04:46:58;16.52;;;8.57;;
34405;SDS011;20658;45.630;8.886;2023-01-23T04:49:33;17.67;;;9.07;;
34405;SDS011;20658;45.630;8.886;2023-01-23T04:52:06;22.15;;;8.80;;
34405;SDS011;20658;45.630;8.886;2023-01-23T04:54:45;22.40;;;9.18;;
34405;SDS011;20658;45.630;8.886;2023-01-23T04:57:18;17.70;;;8.10;;
34405;SDS011;20658;45.630;8.886;2023-01-23T05:00:11;16.92;;;8.75;;
34405;SDS011;20658;45.630;8.886;2023-01-23T05:02:47;19.50;;;9.25;;
34405;SDS011;20658;45.630;8.886;2023-01-23T05:05:22;17.08;;;7.75;;
34405;SDS011;20658;45.630;8.886;2023-01-23T05:07:59;20.40;;;9.25;;
34405;SDS011;20658;45.630;8.886;2023-01-23T05:10:33;18.90;;;10.18;;
34405;SDS011;20658;45.630;8.886;2023-01-23T05:13:09;25.02;;;10.38;;
34405;SDS011;20658;45.630;8.886;2023-01-23T05:15:42;25.45;;;10.13;;
34405;SDS011;20658;45.630;8.886;2023-01-23T05:18:17;21.33;;;8.73;;
34405;SDS011;20658;45.630;8.886;2023-01-23T05:20:52;18.42;;;9.48;;
34405;SDS011;20658;45.630;8.886;2023-01-23T05:23:25;20.58;;;9.70;;
34405;SDS011;20658;45.630;8.886;2023-01-23T05:25:59;21.05;;;10.10;;
34405;SDS011;20658;45.630;8.886;2023-01-23T05:28:32;17.05;;;7.90;;
34405;SDS011;20658;45.630;8.886;2023-01-23T05:31:05;18.13;;;7.47;;
34405;SDS011;20658;45.630;8.886;2023-01-23T05:33:48;19.73;;;9.23;;
34405;SDS011;20658;45.630;8.886;2023-01-23T05:36:21;17.15;;;7.93;;
34405;SDS011;20658;45.630;8.886;2023-01-23T05:38:54;19.45;;;8.35;;
34405;SDS011;20658;45.630;8.886;2023-01-23T05:41:28;13.65;;;6.40;;
34405;SDS011;20658;45.630;8.886;2023-01-23T05:44:25;12.65;;;5.82;;
34405;SDS011;20658;45.630;8.886;2023-01-23T05:47:04;12.75;;;6.03;;
34405;SDS011;20658;45.630;8.886;2023-01-23T05:49:39;13.23;;;5.82;;
34405;SDS011;20658;45.630;8.886;2023-01-23T05:52:12;12.95;;;5.78;;
34405;SDS011;20658;45.630;8.886;2023-01-23T05:54:46;13.75;;;5.07;;
34405;SDS011;20658;45.630;8.886;2023-01-23T05:57:20;11.32;;;5.60;;
34405;SDS011;20658;45.630;8.886;2023-01-23T06:00:12;11.50;;;5.72;;
34405;SDS011;20658;45.630;8.886;2023-01-23T06:03:06;13.27;;;5.50;;
34405;SDS011;20658;45.630;8.886;2023-01-23T06:05:51;16.90;;;6.18;;
34405;SDS011;20658;45.630;8.886;2023-01-23T06:08:26;11.95;;;6.20;;
34405;SDS011;20658;45.630;8.886;2023-01-23T06:11:01;13.27;;;6.30;;
34405;SDS011;20658;45.630;8.886;2023-01-23T06:13:34;14.75;;;6.55;;
34405;SDS011;20658;45.630;8.886;2023-01-23T06:16:08;12.30;;;6.30;;
34405;SDS011;20658;45.630;8.886;2023-01-23T06:18:42;15.35;;;6.68;;
34405;SDS011;20658;45.630;8.886;2023-01-23T06:21:13;12.45;;;6.65;;
34405;SDS011;20658;45.630;8.886;2023-01-23T06:23:48;11.32;;;5.38;;
34405;SDS011;20658;45.630;8.886;2023-01-23T06:26:21;15.93;;;6.75;;
34405;SDS011;20658;45.630;8.886;2023-01-23T06:28:55;18.85;;;7.15;;
34405;SDS011;20658;45.630;8.886;2023-01-23T06:31:29;22.65;;;10.52;;
34405;SDS011;20658;45.630;8.886;2023-01-23T06:34:03;28.17;;;13.32;;
34405;SDS011;20658;45.630;8.886;2023-01-23T06:36:43;17.45;;;7.70;;
34405;SDS011;20658;45.630;8.886;2023-01-23T06:39:17;14.02;;;5.65;;
34405;SDS011;20658;45.630;8.886;2023-01-23T06:41:51;11.48;;;5.30;;
34405;SDS011;20658;45.630;8.886;2023-01-23T06:44:25;18.63;;;5.45;;
34405;SDS011;20658;45.630;8.886;2023-01-23T06:46:58;13.10;;;5.15;;
34405;SDS011;20658;45.630;8.886;2023-01-23T06:49:32;13.70;;;4.78;;
34405;SDS011;20658;45.630;8.886;2023-01-23T06:52:07;11.25;;;5.20;;
34405;SDS011;20658;45.630;8.886;2023-01-23T06:54:42;11.07;;;4.63;;
34405;SDS011;20658;45.630;8.886;2023-01-23T06:57:16;12.65;;;5.10;;
34405;SDS011;20658;45.630;8.886;2023-01-23T06:59:49;14.75;;;5.13;;
34405;SDS011;20658;45.630;8.886;2023-01-23T07:02:23;18.35;;;7.78;;
34405;SDS011;20658;45.630;8.886;2023-01-23T07:04:56;21.30;;;7.07;;
34405;SDS011;20658;45.630;8.886;2023-01-23T07:07:31;23.75;;;7.32;;
34405;SDS011;20658;45.630;8.886;2023-01-23T07:10:05;14.55;;;6.80;;
34405;SDS011;20658;45.630;8.886;2023-01-23T07:12:39;14.00;;;5.35;;
34405;SDS011;20658;45.630;8.886;2023-01-23T07:15:12;15.02;;;5.53;;
34405;SDS011;20658;45.630;8.886;2023-01-23T07:17:46;19.48;;;6.82;;
34405;SDS011;20658;45.630;8.886;2023-01-23T07:20:20;18.75;;;7.13;;
34405;SDS011;20658;45.630;8.886;2023-01-23T07:22:59;19.77;;;9.07;;
34405;SDS011;20658;45.630;8.886;2023-01-23T07:25:33;15.48;;;7.03;;
34405;SDS011;20658;45.630;8.886;2023-01-23T07:28:06;16.20;;;6.15;;
34405;SDS011;20658;45.630;8.886;2023-01-23T07:30:40;17.65;;;8.07;;
34405;SDS011;20658;45.630;8.886;2023-01-23T07:33:13;17.50;;;7.43;;
34405;SDS011;20658;45.630;8.886;2023-01-23T07:35:46;21.42;;;6.97;;
34405;SDS011;20658;45.630;8.886;2023-01-23T07:38:21;25.02;;;9.07;;
34405;SDS011;20658;45.630;8.886;2023-01-23T07:40:56;21.98;;;9.23;;
34405;SDS011;20658;45.630;8.886;2023-01-23T07:43:30;23.95;;;9.13;;
34405;SDS011;20658;45.630;8.886;2023-01-23T07:46:04;22.00;;;9.88;;
34405;SDS011;20658;45.630;8.886;2023-01-23T07:48:38;25.70;;;10.80;;
34405;SDS011;20658;45.630;8.886;2023-01-23T07:51:11;22.35;;;8.63;;
34405;SDS011;20658;45.630;8.886;2023-01-23T07:53:46;21.10;;;9.07;;
34405;SDS011;20658;45.630;8.886;2023-01-23T07:56:20;19.33;;;8.38;;
34405;SDS011;20658;45.630;8.886;2023-01-23T07:58:53;27.30;;;13.38;;
34405;SDS011;20658;45.630;8.886;2023-01-23T08:01:26;27.50;;;11.10;;
34405;SDS011;20658;45.630;8.886;2023-01-23T08:04:00;22.17;;;10.40;;
34405;SDS011;20658;45.630;8.886;2023-01-23T08:06:33;22.63;;;8.27;;
34405;SDS011;20658;45.630;8.886;2023-01-23T08:09:08;16.77;;;6.50;;
34405;SDS011;20658;45.630;8.886;2023-01-23T08:11:41;16.15;;;6.28;;
34405;SDS011;20658;45.630;8.886;2023-01-23T08:14:14;15.50;;;6.10;;
34405;SDS011;20658;45.630;8.886;2023-01-23T08:16:48;14.75;;;5.95;;
34405;SDS011;20658;45.630;8.886;2023-01-23T08:19:22;21.13;;;5.88;;
34405;SDS011;20658;45.630;8.886;2023-01-23T08:21:57;14.38;;;5.93;;
34405;SDS011;20658;45.630;8.886;2023-01-23T08:24:32;15.13;;;6.70;;
34405;SDS011;20658;45.630;8.886;2023-01-23T08:27:05;23.90;;;8.02;;
34405;SDS011;20658;45.630;8.886;2023-01-23T08:29:34;18.88;;;8.07;;
34405;SDS011;20658;45.630;8.886;2023-01-23T08:32:07;23.58;;;8.90;;
34405;SDS011;20658;45.630;8.886;2023-01-23T08:34:40;18.88;;;7.10;;
34405;SDS011;20658;45.630;8.886;2023-01-23T08:37:14;18.48;;;8.07;;
34405;SDS011;20658;45.630;8.886;2023-01-23T08:39:48;28.38;;;7.72;;
34405;SDS011;20658;45.630;8.886;2023-01-23T08:42:22;22.75;;;7.45;;
34405;SDS011;20658;45.630;8.886;2023-01-23T08:44:55;18.75;;;7.47;;
34405;SDS011;20658;45.630;8.886;2023-01-23T08:47:29;16.65;;;7.50;;
34405;SDS011;20658;45.630;8.886;2023-01-23T08:50:07;22.08;;;9.13;;
34405;SDS011;20658;45.630;8.886;2023-01-23T08:52:42;26.55;;;9.05;;
34405;SDS011;20658;45.630;8.886;2023-01-23T08:55:17;26.10;;;8.65;;
34405;SDS011;20658;45.630;8.886;2023-01-23T08:57:50;22.35;;;7.47;;
34405;SDS011;20658;45.630;8.886;2023-01-23T09:00:23;18.02;;;7.20;;
34405;SDS011;20658;45.630;8.886;2023-01-23T09:02:58;21.67;;;7.55;;
34405;SDS011;20658;45.630;8.886;2023-01-23T09:05:31;18.83;;;8.57;;
34405;SDS011;20658;45.630;8.886;2023-01-23T09:08:07;15.38;;;6.47;;
34405;SDS011;20658;45.630;8.886;2023-01-23T09:10:42;22.92;;;7.63;;
34405;SDS011;20658;45.630;8.886;2023-01-23T09:13:15;17.45;;;7.35;;
34405;SDS011;20658;45.630;8.886;2023-01-23T09:15:50;26.45;;;10.27;;
34405;SDS011;20658;45.630;8.886;2023-01-23T09:18:23;23.13;;;8.43;;
34405;SDS011;20658;45.630;8.886;2023-01-23T09:20:57;23.15;;;8.10;;
34405;SDS011;20658;45.630;8.886;2023-01-23T09:23:30;22.23;;;8.50;;
34405;SDS011;20658;45.630;8.886;2023-01-23T09:26:05;26.60;;;8.88;;
34405;SDS011;20658;45.630;8.886;2023-01-23T09:28:40;20.73;;;9.27;;
34405;SDS011;20658;45.630;8.886;2023-01-23T09:31:10;27.30;;;8.75;;
34405;SDS011;20658;45.630;8.886;2023-01-23T09:33:46;32.47;;;9.60;;
34405;SDS011;20658;45.630;8.886;2023-01-23T09:36:20;26.30;;;8.70;;
34405;SDS011;20658;45.630;8.886;2023-01-23T09:38:53;23.23;;;9.05;;
34405;SDS011;20658;45.630;8.886;2023-01-23T09:41:28;20.33;;;10.30;;
34405;SDS011;20658;45.630;8.886;2023-01-23T09:44:03;29.83;;;10.40;;
34405;SDS011;20658;45.630;8.886;2023-01-23T09:46:43;23.80;;;9.93;;
34405;SDS011;20658;45.630;8.886;2023-01-23T09:49:23;26.40;;;9.68;;
34405;SDS011;20658;45.630;8.886;2023-01-23T09:52:01;24.05;;;10.43;;
34405;SDS011;20658;45.630;8.886;2023-01-23T09:54:39;20.38;;;10.05;;
34405;SDS011;20658;45.630;8.886;2023-01-23T09:57:19;22.92;;;10.10;;
34405;SDS011;20658;45.630;8.886;2023-01-23T09:59:58;22.88;;;9.32;;
34405;SDS011;20658;45.630;8.886;2023-01-23T10:02:33;23.48;;;8.95;;
34405;SDS011;20658;45.630;8.886;2023-01-23T10:05:07;24.05;;;9.90;;
34405;SDS011;20658;45.630;8.886;2023-01-23T10:07:57;24.98;;;11.05;;
34405;SDS011;20658;45.630;8.886;2023-01-23T10:10:44;21.45;;;10.43;;
34405;SDS011;20658;45.630;8.886;2023-01-23T10:13:38;26.85;;;10.15;;
34405;SDS011;20658;45.630;8.886;2023-01-23T10:16:38;23.60;;;10.15;;
34405;SDS011;20658;45.630;8.886;2023-01-23T10:19:39;21.75;;;9.27;;
34405;SDS011;20658;45.630;8.886;2023-01-23T10:22:36;22.17;;;9.18;;
34405;SDS011;20658;45.630;8.886;2023-01-23T10:25:18;25.73;;;8.48;;
34405;SDS011;20658;45.630;8.886;2023-01-23T10:27:54;20.35;;;9.13;;
34405;SDS011;20658;45.630;8.886;2023-01-23T10:30:53;25.35;;;10.50;;
34405;SDS011;20658;45.630;8.886;2023-01-23T10:33:33;22.20;;;9.90;;
34405;SDS011;20658;45.630;8.886;2023-01-23T10:38:53;24.02;;;10.43;;
34405;SDS011;20658;45.630;8.886;2023-01-23T10:41:33;37.17;;;12.70;;
34405;SDS011;20658;45.630;8.886;2023-01-23T10:44:08;27.42;;;12.13;;
34405;SDS011;20658;45.630;8.886;2023-01-23T10:46:49;23.75;;;12.18;;
34405;SDS011;20658;45.630;8.886;2023-01-23T10:49:27;23.90;;;11.35;;
34405;SDS011;20658;45.630;8.886;2023-01-23T10:52:03;21.80;;;11.70;;
34405;SDS011;20658;45.630;8.886;2023-01-23T10:55:00;26.80;;;12.27;;
34405;SDS011;20658;45.630;8.886;2023-01-23T10:57:37;31.25;;;12.80;;
34405;SDS011;20658;45.630;8.886;2023-01-23T11:00:20;24.73;;;12.25;;
34405;SDS011;20658;45.630;8.886;2023-01-23T11:03:07;24.23;;;11.80;;
34405;SDS011;20658;45.630;8.886;2023-01-23T11:06:02;27.50;;;10.60;;
34405;SDS011;20658;45.630;8.886;2023-01-23T11:08:36;24.80;;;11.55;;
34405;SDS011;20658;45.630;8.886;2023-01-23T11:11:20;25.40;;;11.75;;
34405;SDS011;20658;45.630;8.886;2023-01-23T11:14:04;33.88;;;12.10;;
34405;SDS011;20658;45.630;8.886;2023-01-23T11:16:41;26.40;;;10.02;;
34405;SDS011;20658;45.630;8.886;2023-01-23T11:19:17;27.38;;;10.20;;
34405;SDS011;20658;45.630;8.886;2023-01-23T11:21:53;20.17;;;9.23;;
34405;SDS011;20658;45.630;8.886;2023-01-23T11:24:31;29.35;;;10.35;;
34405;SDS011;20658;45.630;8.886;2023-01-23T11:27:17;26.58;;;10.38;;
34405;SDS011;20658;45.630;8.886;2023-01-23T11:29:57;23.92;;;10.57;;
34405;SDS011;20658;45.630;8.886;2023-01-23T11:33:00;30.45;;;11.50;;
34405;SDS011;20658;45.630;8.886;2023-01-23T11:35:57;24.73;;;11.10;;
34405;SDS011;20658;45.630;8.886;2023-01-23T11:38:30;27.10;;;13.10;;
34405;SDS011;20658;45.630;8.886;2023-01-23T11:41:12;27.83;;;11.27;;
34405;SDS011;20658;45.630;8.886;2023-01-23T11:43:46;27.60;;;11.18;;
34405;SDS011;20658;45.630;8.886;2023-01-23T11:46:23;28.58;;;11.07;;
34405;SDS011;20658;45.630;8.886;2023-01-23T11:49:15;27.88;;;11.10;;
34405;SDS011;20658;45.630;8.886;2023-01-23T11:52:08;30.83;;;12.20;;
34405;SDS011;20658;45.630;8.886;2023-01-23T11:55:02;25.83;;;11.63;;
34405;SDS011;20658;45.630;8.886;2023-01-23T11:57:55;28.08;;;11.50;;
34405;SDS011;20658;45.630;8.886;2023-01-23T12:00:38;28.65;;;11.48;;
34405;SDS011;20658;45.630;8.886;2023-01-23T12:03:29;31.77;;;11.43;;
34405;SDS011;20658;45.630;8.886;2023-01-23T12:06:28;32.83;;;12.07;;
34405;SDS011;20658;45.630;8.886;2023-01-23T12:09:31;26.55;;;12.05;;
34405;SDS011;20658;45.630;8.886;2023-01-23T12:12:21;24.33;;;10.90;;
34405;SDS011;20658;45.630;8.886;2023-01-23T12:15:11;28.83;;;11.90;;
34405;SDS011;20658;45.630;8.886;2023-01-23T12:18:02;26.95;;;12.05;;
34405;SDS011;20658;45.630;8.886;2023-01-23T12:20:53;30.73;;;11.13;;
34405;SDS011;20658;45.630;8.886;2023-01-23T12:23:37;32.42;;;12.40;;
34405;SDS011;20658;45.630;8.886;2023-01-23T12:26:24;32.55;;;13.00;;
34405;SDS011;20658;45.630;8.886;2023-01-23T12:29:10;29.77;;;12.32;;
34405;SDS011;20658;45.630;8.886;2023-01-23T12:32:09;29.23;;;12.50;;
34405;SDS011;20658;45.630;8.886;2023-01-23T12:35:06;30.20;;;12.23;;
34405;SDS011;20658;45.630;8.886;2023-01-23T12:37:59;25.67;;;11.10;;
34405;SDS011;20658;45.630;8.886;2023-01-23T12:41:01;24.30;;;12.27;;
34405;SDS011;20658;45.630;8.886;2023-01-23T12:43:48;27.35;;;12.77;;
34405;SDS011;20658;45.630;8.886;2023-01-23T12:46:28;28.70;;;12.55;;
34405;SDS011;20658;45.630;8.886;2023-01-23T12:49:11;26.13;;;12.65;;
34405;SDS011;20658;45.630;8.886;2023-01-23T12:51:56;28.95;;;13.38;;
34405;SDS011;20658;45.630;8.886;2023-01-23T12:54:35;32.72;;;13.65;;
34405;SDS011;20658;45.630;8.886;2023-01-23T12:57:08;26.90;;;11.93;;
34405;SDS011;20658;45.630;8.886;2023-01-23T12:59:52;27.27;;;12.65;;
34405;SDS011;20658;45.630;8.886;2023-01-23T13:02:32;28.27;;;12.10;;
34405;SDS011;20658;45.630;8.886;2023-01-23T13:05:15;29.55;;;13.65;;
34405;SDS011;20658;45.630;8.886;2023-01-23T13:07:56;25.17;;;12.30;;
34405;SDS011;20658;45.630;8.886;2023-01-23T13:10:42;31.10;;;12.70;;
34405;SDS011;20658;45.630;8.886;2023-01-23T13:13:48;24.73;;;11.63;;
34405;SDS011;20658;45.630;8.886;2023-01-23T13:16:24;28.63;;;13.23;;
34405;SDS011;20658;45.630;8.886;2023-01-23T13:19:00;57.45;;;32.60;;
34405;SDS011;20658;45.630;8.886;2023-01-23T13:22:12;29.35;;;19.45;;
34405;SDS011;20658;45.630;8.886;2023-01-23T13:24:58;23.17;;;11.18;;
34405;SDS011;20658;45.630;8.886;2023-01-23T13:27:47;24.55;;;13.07;;
34405;SDS011;20658;45.630;8.886;2023-01-23T13:30:35;27.17;;;12.32;;
34405;SDS011;20658;45.630;8.886;2023-01-23T13:36:27;24.52;;;12.75;;
34405;SDS011;20658;45.630;8.886;2023-01-23T13:45:14;26.02;;;12.27;;
34405;SDS011;20658;45.630;8.886;2023-01-23T13:48:08;24.58;;;11.32;;
34405;SDS011;20658;45.630;8.886;2023-01-23T13:51:50;23.02;;;11.80;;
34405;SDS011;20658;45.630;8.886;2023-01-23T13:54:32;27.98;;;12.60;;
34405;SDS011;20658;45.630;8.886;2023-01-23T13:57:32;25.85;;;12.07;;
34405;SDS011;20658;45.630;8.886;2023-01-23T14:00:18;29.42;;;12.80;;
34405;SDS011;20658;45.630;8.886;2023-01-23T14:03:09;26.35;;;12.63;;
34405;SDS011;20658;45.630;8.886;2023-01-23T14:06:29;25.00;;;12.38;;
34405;SDS011;20658;45.630;8.886;2023-01-23T14:09:20;31.10;;;15.30;;
34405;SDS011;20658;45.630;8.886;2023-01-23T14:11:55;94.45;;;52.05;;
34405;SDS011;20658;45.630;8.886;2023-01-23T14:14:52;31.42;;;15.57;;
34405;SDS011;20658;45.630;8.886;2023-01-23T14:17:52;41.22;;;19.23;;
34405;SDS011;20658;45.630;8.886;2023-01-23T14:20:36;32.13;;;15.82;;
34405;SDS011;20658;45.630;8.886;2023-01-23T14:23:14;33.40;;;15.25;;
34405;SDS011;20658;45.630;8.886;2023-01-23T14:25:57;32.15;;;15.63;;
34405;SDS011;20658;45.630;8.886;2023-01-23T14:28:32;30.00;;;14.65;;
34405;SDS011;20658;45.630;8.886;2023-01-23T14:31:06;31.77;;;16.23;;
34405;SDS011;20658;45.630;8.886;2023-01-23T14:34:00;35.88;;;16.85;;
34405;SDS011;20658;45.630;8.886;2023-01-23T14:36:35;33.08;;;19.95;;
34405;SDS011;20658;45.630;8.886;2023-01-23T14:39:14;33.00;;;18.15;;
34405;SDS011;20658;45.630;8.886;2023-01-23T14:41:52;34.33;;;17.48;;
34405;SDS011;20658;45.630;8.886;2023-01-23T14:44:28;40.08;;;19.00;;
34405;SDS011;20658;45.630;8.886;2023-01-23T14:47:09;31.33;;;15.77;;
34405;SDS011;20658;45.630;8.886;2023-01-23T14:49:47;29.52;;;14.75;;
34405;SDS011;20658;45.630;8.886;2023-01-23T14:52:22;31.35;;;15.52;;
34405;SDS011;20658;45.630;8.886;2023-01-23T14:54:59;33.75;;;16.20;;
34405;SDS011;20658;45.630;8.886;2023-01-23T14:57:34;33.47;;;16.92;;
34405;SDS011;20658;45.630;8.886;2023-01-23T15:00:12;31.38;;;14.45;;
34405;SDS011;20658;45.630;8.886;2023-01-23T15:02:50;39.25;;;16.73;;
34405;SDS011;20658;45.630;8.886;2023-01-23T15:05:20;40.40;;;16.33;;
34405;SDS011;20658;45.630;8.886;2023-01-23T15:07:57;47.88;;;17.23;;
34405;SDS011;20658;45.630;8.886;2023-01-23T15:10:42;34.95;;;16.75;;
34405;SDS011;20658;45.630;8.886;2023-01-23T15:13:21;28.65;;;14.60;;
34405;SDS011;20658;45.630;8.886;2023-01-23T15:15:57;36.05;;;16.63;;
34405;SDS011;20658;45.630;8.886;2023-01-23T15:18:34;35.03;;;15.00;;
34405;SDS011;20658;45.630;8.886;2023-01-23T15:21:08;39.95;;;16.17;;
34405;SDS011;20658;45.630;8.886;2023-01-23T15:23:41;31.83;;;16.48;;
34405;SDS011;20658;45.630;8.886;2023-01-23T15:26:35;35.55;;;18.60;;
34405;SDS011;20658;45.630;8.886;2023-01-23T15:29:18;45.83;;;18.48;;
34405;SDS011;20658;45.630;8.886;2023-01-23T15:31:52;33.53;;;15.00;;
34405;SDS011;20658;45.630;8.886;2023-01-23T15:34:28;30.65;;;14.77;;
34405;SDS011;20658;45.630;8.886;2023-01-23T15:37:04;28.73;;;14.80;;
34405;SDS011;20658;45.630;8.886;2023-01-23T15:39:52;32.58;;;15.52;;
34405;SDS011;20658;45.630;8.886;2023-01-23T15:42:31;31.05;;;16.15;;
34405;SDS011;20658;45.630;8.886;2023-01-23T15:45:12;38.83;;;20.45;;
34405;SDS011;20658;45.630;8.886;2023-01-23T15:47:46;41.72;;;20.48;;